Time;durP1;ratioP1;P1;durP2;ratioP2;P2;SDS_P1;SDS_P2;PMS_P1;PMS_P2;Temp;Humidity;BMP_temperature;BMP_pressure;BME280_temperature;BME280_humidity;BME280_pressure;Samples;Min_cycle;Max_cycle;Signal;HPM_P1;HPM_P2
2021/01/31 00:00:34;;;;;;;21.30;13.25;;;180.00;2252.80;;;;;;5084734;28;20086;-61
2021/01/31 00:03:01;;;;;;;21.70;13.27;;;180.00;2252.80;;;;;;5089248;28;20036;-67
2021/01/31 00:05:28;;;;;;;21.48;11.73;;;180.00;2252.80;;;;;;5087587;28;20046;-69
2021/01/31 00:07:54;;;;;;;22.95;12.68;;;180.00;2252.80;;;;;;5084182;28;20519;-67
2021/01/31 00:10:25;;;;;;;18.92;11.10;;;180.00;2252.80;;;;;;5085785;28;20017;-60
2021/01/31 00:12:51;;;;;;;20.17;11.57;;;180.00;2252.80;;;;;;5084728;28;20055;-67
2021/01/31 00:15:20;;;;;;;20.60;11.15;;;180.10;2252.80;;;;;;5082523;28;20047;-62
2021/01/31 00:17:46;;;;;;;17.60;10.55;;;180.00;2252.80;;;;;;5085474;28;20111;-60
2021/01/31 00:20:14;;;;;;;18.88;10.55;;;180.00;2252.80;;;;;;5085438;28;20099;-73
2021/01/31 00:22:39;;;;;;;17.92;10.15;;;180.00;2252.80;;;;;;5085472;28;20032;-62
2021/01/31 00:25:06;;;;;;;15.15;9.82;;;179.90;2252.80;;;;;;5083535;28;20130;-73
2021/01/31 00:27:32;;;;;;;17.13;11.32;;;179.90;2252.80;;;;;;5086839;28;20453;-70
2021/01/31 00:29:57;;;;;;;18.10;12.10;;;180.00;2227.20;;;;;;5083184;28;20105;-60
2021/01/31 00:32:29;;;;;;;19.13;10.68;;;180.00;2227.20;;;;;;5085365;28;20067;-71
2021/01/31 00:34:56;;;;;;;15.25;9.02;;;180.00;2227.20;;;;;;5085052;28;20450;-72
2021/01/31 00:37:24;;;;;;;14.55;9.43;;;180.00;2227.20;;;;;;5081910;28;20528;-68
2021/01/31 00:39:51;;;;;;;17.77;11.27;;;180.00;2227.20;;;;;;5083250;28;20131;-64
2021/01/31 00:42:19;;;;;;;19.85;11.00;;;180.00;2227.20;;;;;;5080569;28;20059;-63
2021/01/31 00:44:51;;;;;;;15.18;8.18;;;179.90;2227.20;;;;;;5082060;28;20537;-67
2021/01/31 00:47:19;;;;;;;14.40;8.95;;;180.00;2227.20;;;;;;5083283;28;20024;-72
2021/01/31 00:49:46;;;;;;;17.17;10.48;;;180.00;2227.20;;;;;;5081123;28;20108;-71
2021/01/31 00:52:11;;;;;;;16.20;10.13;;;180.00;2227.20;;;;;;5080434;28;20111;-67
2021/01/31 00:54:37;;;;;;;23.88;12.80;;;180.00;2227.20;;;;;;5086770;28;20103;-72
2021/01/31 00:57:04;;;;;;;22.05;12.57;;;180.00;2227.20;;;;;;5092364;28;20081;-73
2021/01/31 00:59:30;;;;;;;19.27;13.07;;;180.10;2227.20;;;;;;5085366;28;20060;-64
2021/01/31 01:01:56;;;;;;;19.15;12.93;;;180.10;2227.20;;;;;;5077578;28;20026;-64
2021/01/31 01:04:22;;;;;;;18.50;12.05;;;180.10;2227.20;;;;;;5077726;28;20120;-71
2021/01/31 01:06:47;;;;;;;16.15;10.90;;;180.10;2227.20;;;;;;5082553;28;20039;-69
2021/01/31 01:09:13;;;;;;;16.67;10.15;;;180.00;2227.20;;;;;;5079632;28;20035;-71
2021/01/31 01:11:39;;;;;;;11.23;7.55;;;180.10;2227.20;;;;;;5081192;28;20426;-72
2021/01/31 01:14:06;;;;;;;13.13;8.18;;;180.00;2227.20;;;;;;5080992;28;20016;-73
2021/01/31 01:16:32;;;;;;;12.40;7.47;;;180.00;2227.20;;;;;;5067141;28;20036;-69
2021/01/31 01:18:57;;;;;;;12.88;8.50;;;179.90;2252.80;;;;;;5078228;28;20031;-69
2021/01/31 01:21:23;;;;;;;11.98;7.60;;;179.90;2252.80;;;;;;5082600;28;20024;-73
2021/01/31 01:23:49;;;;;;;10.43;7.32;;;179.80;2252.80;;;;;;5091512;28;20059;-71
2021/01/31 01:26:15;;;;;;;11.85;7.68;;;179.80;2252.80;;;;;;5084714;28;20078;-69
2021/01/31 01:28:40;;;;;;;12.85;8.23;;;179.80;2252.80;;;;;;5094094;28;20054;-71
2021/01/31 01:31:06;;;;;;;13.35;8.35;;;179.70;2252.80;;;;;;5091947;28;20036;-72
2021/01/31 01:33:32;;;;;;;13.65;8.07;;;179.80;2252.80;;;;;;5095272;28;20028;-73
2021/01/31 01:35:58;;;;;;;10.57;6.65;;;179.70;2252.80;;;;;;5094738;28;20029;-73
2021/01/31 01:38:24;;;;;;;10.10;6.43;;;179.70;2252.80;;;;;;5077500;28;20020;-73
2021/01/31 01:40:55;;;;;;;10.02;6.55;;;179.70;2227.20;;;;;;5075053;28;20389;-73
2021/01/31 01:43:22;;;;;;;12.35;7.20;;;179.60;2227.20;;;;;;5087968;28;20048;-71
2021/01/31 01:46:18;;;;;;;12.02;6.75;;;179.50;2252.80;;;;;;5084415;28;20020;-73
2021/01/31 01:48:51;;;;;;;10.52;6.95;;;179.50;2252.80;;;;;;5089408;28;20111;-72
2021/01/31 01:51:22;;;;;;;13.60;8.18;;;179.30;2252.80;;;;;;5093912;28;20031;-74
2021/01/31 01:53:47;;;;;;;9.75;6.88;;;179.30;2252.80;;;;;;5091444;28;20063;-76
2021/01/31 01:56:16;;;;;;;12.55;7.50;;;179.30;2252.80;;;;;;5098004;28;20032;-75
2021/01/31 01:58:42;;;;;;;11.48;7.55;;;179.30;2252.80;;;;;;5100756;28;20040;-73
2021/01/31 02:01:08;;;;;;;11.60;7.50;;;179.30;2252.80;;;;;;5099549;28;20028;-73
2021/01/31 02:03:41;;;;;;;16.50;9.98;;;179.30;2252.80;;;;;;5094960;28;20044;-73
2021/01/31 02:06:16;;;;;;;17.02;11.65;;;179.30;2252.80;;;;;;5084468;28;20025;-72
2021/01/31 02:08:42;;;;;;;19.95;8.95;;;179.30;2252.80;;;;;;5085863;28;20545;-69
2021/01/31 02:11:09;;;;;;;23.98;11.40;;;179.20;2252.80;;;;;;5080347;28;20039;-75
2021/01/31 02:13:38;;;;;;;12.48;8.50;;;154.50;2252.80;;;;;;5081250;28;20056;-73
2021/01/31 02:16:12;;;;;;;13.23;9.38;;;154.50;2252.80;;;;;;5078945;28;20032;-69
2021/01/31 02:18:46;;;;;;;12.48;8.90;;;154.50;2252.80;;;;;;5080076;28;20419;-73
2021/01/31 02:22:11;;;;;;;14.20;9.48;;;154.40;2252.80;;;;;;5061115;28;20055;-73
2021/01/31 02:25:14;;;;;;;13.25;9.38;;;154.40;2252.80;;;;;;5079989;28;20098;-74
2021/01/31 02:27:48;;;;;;;12.18;8.98;;;154.20;2252.80;;;;;;5078505;28;20032;-71
2021/01/31 02:30:31;;;;;;;16.13;10.83;;;154.20;2252.80;;;;;;5080318;28;20048;-72
2021/01/31 02:33:21;;;;;;;15.77;10.00;;;154.20;2252.80;;;;;;5084756;28;20249;-76
2021/01/31 02:35:49;;;;;;;16.38;10.68;;;154.10;2252.80;;;;;;5082134;28;20455;-76
2021/01/31 02:38:35;;;;;;;15.57;10.18;;;154.00;2252.80;;;;;;5081413;28;20543;-75
2021/01/31 02:41:12;;;;;;;14.77;10.50;;;154.00;2252.80;;;;;;5087769;28;20028;-76
2021/01/31 02:43:44;;;;;;;18.38;11.65;;;154.00;2252.80;;;;;;5088714;28;20040;-75
2021/01/31 02:46:35;;;;;;;15.13;10.13;;;154.00;2252.80;;;;;;5090132;28;20020;-73
2021/01/31 02:49:01;;;;;;;16.20;10.80;;;153.90;2252.80;;;;;;5031982;28;20032;-70
2021/01/31 02:51:32;;;;;;;15.60;11.27;;;153.80;2252.80;;;;;;5031817;28;20414;-71
2021/01/31 02:54:07;;;;;;;16.50;11.15;;;153.80;2252.80;;;;;;5031033;28;20097;-73
2021/01/31 02:56:41;;;;;;;16.80;10.98;;;153.80;2252.80;;;;;;5033070;28;20033;-71
2021/01/31 02:59:31;;;;;;;17.30;11.18;;;153.80;2252.80;;;;;;5033213;28;20049;-72
2021/01/31 03:02:04;;;;;;;20.42;11.77;;;153.70;2252.80;;;;;;5032099;28;20025;-73
2021/01/31 03:04:46;;;;;;;16.52;11.40;;;153.80;2252.80;;;;;;5031083;28;20029;-73
2021/01/31 03:07:19;;;;;;;17.60;11.45;;;153.80;2252.80;;;;;;5031113;28;20040;-67
2021/01/31 03:09:50;;;;;;;17.55;11.85;;;153.70;2252.80;;;;;;5031962;28;20025;-74
2021/01/31 03:12:23;;;;;;;19.60;11.93;;;153.80;2252.80;;;;;;5031806;28;20044;-73
2021/01/31 03:14:58;;;;;;;18.42;12.45;;;153.70;2252.80;;;;;;5031228;28;20022;-73
2021/01/31 03:17:51;;;;;;;20.02;13.23;;;153.70;2252.80;;;;;;5030914;28;20029;-71
2021/01/31 03:20:34;;;;;;;19.85;12.40;;;153.70;2252.80;;;;;;5032495;28;20057;-72
2021/01/31 03:23:14;;;;;;;21.27;12.82;;;153.60;2252.80;;;;;;5031793;28;20068;-69
2021/01/31 03:25:48;;;;;;;21.85;13.60;;;128.90;2252.80;;;;;;5053168;28;20032;-71
2021/01/31 03:28:14;;;;;;;22.00;13.68;;;153.60;2252.80;;;;;;5093899;28;20350;-71
2021/01/31 03:30:39;;;;;;;20.95;13.38;;;153.60;2252.80;;;;;;5094092;28;20028;-73
2021/01/31 03:33:13;;;;;;;22.45;14.70;;;153.60;2252.80;;;;;;5093914;28;20111;-70
2021/01/31 03:35:43;;;;;;;19.90;13.38;;;153.60;2252.80;;;;;;5094414;28;20035;-73
2021/01/31 03:38:12;;;;;;;21.33;13.93;;;128.90;2252.80;;;;;;5093760;28;20020;-74
2021/01/31 03:40:41;;;;;;;24.05;14.77;;;128.80;2252.80;;;;;;5093560;28;20048;-72
2021/01/31 03:43:07;;;;;;;23.83;13.38;;;128.90;2252.80;;;;;;5093914;28;20062;-72
2021/01/31 03:46:02;;;;;;;23.25;15.52;;;128.80;2252.80;;;;;;5093628;28;20060;-73
2021/01/31 03:48:34;;;;;;;24.75;15.98;;;128.70;2252.80;;;;;;5011121;28;20045;-75
2021/01/31 03:51:00;;;;;;;23.35;15.27;;;128.70;2252.80;;;;;;5011402;28;20049;-75
2021/01/31 03:53:26;;;;;;;26.35;16.52;;;128.80;2252.80;;;;;;5011316;28;20077;-74
2021/01/31 03:55:53;;;;;;;26.65;15.90;;;128.70;2252.80;;;;;;5011148;28;20030;-73
2021/01/31 03:58:20;;;;;;;24.13;16.52;;;128.50;2252.80;;;;;;5010931;28;20022;-75
2021/01/31 04:00:53;;;;;;;26.33;16.50;;;128.50;2252.80;;;;;;5011141;28;20041;-73
2021/01/31 04:03:25;;;;;;;25.20;16.73;;;128.50;2252.80;;;;;;5011394;28;20076;-69
2021/01/31 04:06:03;;;;;;;28.88;17.33;;;128.60;2252.80;;;;;;5011344;28;20022;-70
2021/01/31 04:08:32;;;;;;;30.23;17.80;;;128.50;2252.80;;;;;;5011121;28;20454;-73
2021/01/31 04:10:58;;;;;;;29.33;17.80;;;128.60;2252.80;;;;;;5011187;28;20022;-72
2021/01/31 04:13:24;;;;;;;28.15;18.15;;;128.50;2252.80;;;;;;5010861;28;20086;-71
2021/01/31 04:15:52;;;;;;;32.88;19.90;;;128.30;2252.80;;;;;;5010998;28;20045;-73
2021/01/31 04:18:20;;;;;;;31.40;19.23;;;128.30;2252.80;;;;;;5011058;28;20034;-72
2021/01/31 04:20:46;;;;;;;31.67;18.73;;;128.30;2252.80;;;;;;5012019;28;20089;-73
2021/01/31 04:23:12;;;;;;;34.33;20.08;;;128.20;2252.80;;;;;;5008203;28;20483;-71
2021/01/31 04:25:38;;;;;;;35.70;20.55;;;128.10;2252.80;;;;;;5064817;28;20473;-71
2021/01/31 04:28:09;;;;;;;34.50;19.83;;;128.10;2252.80;;;;;;5092053;28;20035;-70
2021/01/31 04:30:38;;;;;;;37.05;20.23;;;128.00;2252.80;;;;;;5091671;28;20039;-71
2021/01/31 04:33:05;;;;;;;34.38;19.80;;;128.00;2252.80;;;;;;5091955;28;20050;-71
2021/01/31 04:35:31;;;;;;;34.55;20.23;;;103.30;2227.20;;;;;;5090128;28;20024;-72
2021/01/31 04:37:56;;;;;;;33.72;20.50;;;103.20;2227.20;;;;;;5092490;28;20358;-72
2021/01/31 04:40:23;;;;;;;35.72;21.27;;;103.20;2227.20;;;;;;5092184;28;20455;-68
2021/01/31 04:42:49;;;;;;;39.17;20.60;;;103.20;2227.20;;;;;;5091965;28;20040;-65
2021/01/31 04:45:16;;;;;;;35.60;21.15;;;103.20;2227.20;;;;;;5091831;28;20019;-64
2021/01/31 04:47:53;;;;;;;34.80;21.05;;;103.20;2227.20;;;;;;5092722;28;20028;-68
2021/01/31 04:50:27;;;;;;;39.97;23.20;;;103.30;2227.20;;;;;;5090686;28;20481;-64
2021/01/31 04:53:06;;;;;;;36.38;21.77;;;103.30;2227.20;;;;;;5088761;28;20016;-60
2021/01/31 04:55:59;;;;;;;38.67;21.20;;;103.20;2227.20;;;;;;5088818;28;20036;-67
2021/01/31 04:58:31;;;;;;;39.33;21.77;;;103.20;2227.20;;;;;;5090783;28;20030;-67
2021/01/31 05:01:08;;;;;;;37.03;22.13;;;103.20;2227.20;;;;;;5071319;28;20035;-71
2021/01/31 05:03:56;;;;;;;37.30;22.13;;;103.20;2227.20;;;;;;5089472;28;20122;-72
2021/01/31 05:06:23;;;;;;;38.00;21.02;;;103.20;2227.20;;;;;;5090478;28;20020;-72
2021/01/31 05:08:50;;;;;;;34.97;20.73;;;103.10;2227.20;;;;;;5091363;28;20016;-72
2021/01/31 05:11:38;;;;;;;39.13;21.80;;;103.20;2227.20;;;;;;5091370;28;20073;-72
2021/01/31 05:14:15;;;;;;;35.85;20.02;;;103.20;2227.20;;;;;;5090523;28;20059;-72
2021/01/31 05:16:42;;;;;;;35.63;20.77;;;103.20;2227.20;;;;;;5090570;28;20038;-71
2021/01/31 05:19:13;;;;;;;36.63;21.05;;;103.20;2227.20;;;;;;5091364;28;20063;-73
2021/01/31 05:21:40;;;;;;;44.72;23.77;;;103.20;2227.20;;;;;;5092047;28;20040;-71
2021/01/31 05:24:17;;;;;;;36.15;21.02;;;103.10;2227.20;;;;;;5091446;28;20061;-72
2021/01/31 05:26:50;;;;;;;40.05;22.95;;;103.10;2227.20;;;;;;5090059;28;20191;-63
2021/01/31 05:29:20;;;;;;;35.83;19.55;;;103.10;2227.20;;;;;;5089054;28;20431;-71
2021/01/31 05:32:12;;;;;;;39.72;22.02;;;103.10;2227.20;;;;;;5090621;28;20070;-67
2021/01/31 05:34:38;;;;;;;37.83;21.52;;;103.10;2227.20;;;;;;5090650;28;20128;-72
2021/01/31 05:37:20;;;;;;;35.38;20.48;;;103.10;2227.20;;;;;;5091608;28;20130;-73
2021/01/31 05:39:54;;;;;;;37.58;22.13;;;103.20;2227.20;;;;;;5091226;28;20036;-69
2021/01/31 05:42:26;;;;;;;39.45;22.98;;;103.10;2227.20;;;;;;5089115;28;20049;-72
2021/01/31 05:44:58;;;;;;;38.78;22.30;;;103.20;2227.20;;;;;;5090934;28;20429;-73
2021/01/31 05:47:25;;;;;;;32.55;20.25;;;103.20;2227.20;;;;;;5090668;28;20051;-69
2021/01/31 05:49:54;;;;;;;30.67;18.38;;;103.20;2227.20;;;;;;5090858;28;20086;-73
2021/01/31 05:52:22;;;;;;;32.03;18.83;;;103.20;2227.20;;;;;;5091897;28;20368;-72
2021/01/31 05:54:53;;;;;;;31.27;17.67;;;103.20;2227.20;;;;;;5091939;28;20020;-72
2021/01/31 05:57:21;;;;;;;30.73;18.35;;;103.20;2227.20;;;;;;5092072;28;20032;-72
2021/01/31 05:59:47;;;;;;;31.83;18.77;;;103.20;2227.20;;;;;;5091488;28;20040;-66
2021/01/31 06:02:24;;;;;;;31.95;18.20;;;103.20;2227.20;;;;;;5092247;28;20028;-70
2021/01/31 06:05:16;;;;;;;32.08;19.75;;;103.20;2227.20;;;;;;5091606;28;20028;-72
2021/01/31 06:07:43;;;;;;;34.00;19.80;;;103.10;2227.20;;;;;;5091860;28;20029;-64
2021/01/31 06:10:15;;;;;;;40.60;21.92;;;103.10;2227.20;;;;;;5092049;28;20090;-72
2021/01/31 06:12:43;;;;;;;43.20;23.65;;;103.10;2227.20;;;;;;5092071;28;20024;-68
2021/01/31 06:15:21;;;;;;;39.67;23.17;;;103.10;2227.20;;;;;;5095339;28;20032;-72
2021/01/31 06:18:03;;;;;;;39.08;20.30;;;103.20;2227.20;;;;;;5095997;28;20024;-71
2021/01/31 06:20:41;;;;;;;35.85;19.60;;;103.00;2227.20;;;;;;5095209;28;20032;-72
2021/01/31 06:23:32;;;;;;;39.25;20.95;;;102.90;2227.20;;;;;;5077420;28;20113;-72
2021/01/31 06:25:58;;;;;;;36.15;19.90;;;102.80;2227.20;;;;;;5095078;28;20030;-71
2021/01/31 06:28:28;;;;;;;41.20;20.55;;;102.80;2227.20;;;;;;5095119;28;20111;-72
2021/01/31 06:31:02;;;;;;;42.13;22.17;;;102.80;2227.20;;;;;;5094760;28;20392;-68
2021/01/31 06:33:28;;;;;;;40.25;21.58;;;102.80;2227.20;;;;;;5095076;28;20085;-67
2021/01/31 06:36:14;;;;;;;48.15;25.45;;;102.70;2227.20;;;;;;5094947;28;20028;-72
2021/01/31 06:38:51;;;;;;;37.42;19.33;;;102.60;2227.20;;;;;;5094836;28;20377;-73
2021/01/31 06:41:32;;;;;;;32.72;17.58;;;102.50;2227.20;;;;;;5094836;28;20070;-69
2021/01/31 06:44:08;;;;;;;34.60;19.38;;;102.40;2227.20;;;;;;5095202;28;20444;-71
2021/01/31 06:46:48;;;;;;;39.03;19.33;;;77.70;2227.20;;;;;;5094691;28;20039;-71
2021/01/31 06:49:41;;;;;;;35.03;19.13;;;77.70;2227.20;;;;;;5092793;28;20760;-72
2021/01/31 06:52:26;;;;;;;34.95;19.90;;;77.70;2227.20;;;;;;5084881;28;20050;-70
2021/01/31 06:55:35;;;;;;;36.20;19.15;;;77.70;2227.20;;;;;;5074714;28;20714;-71
2021/01/31 06:58:34;;;;;;;35.90;18.48;;;77.60;2227.20;;;;;;5056214;28;20466;-70
2021/01/31 07:01:26;;;;;;;40.78;20.60;;;77.60;2227.20;;;;;;5011817;28;20586;-71
2021/01/31 07:04:07;;;;;;;33.55;17.63;;;77.60;2227.20;;;;;;5011674;28;20044;-69
2021/01/31 07:06:48;;;;;;;36.00;19.20;;;77.50;2227.20;;;;;;5011336;28;20048;-70
2021/01/31 07:09:13;;;;;;;30.80;16.00;;;77.60;2227.20;;;;;;5003612;28;20033;-70
2021/01/31 07:11:52;;;;;;;31.27;15.77;;;77.50;2227.20;;;;;;4992063;28;20449;-71
2021/01/31 07:14:24;;;;;;;29.90;16.05;;;77.40;2227.20;;;;;;4992354;28;20077;-68
2021/01/31 07:16:49;;;;;;;37.28;20.05;;;77.30;2227.20;;;;;;4975795;28;20568;-72
2021/01/31 07:19:29;;;;;;;40.83;21.48;;;77.30;2227.20;;;;;;4991759;28;20047;-65
2021/01/31 07:22:16;;;;;;;32.58;17.88;;;77.30;2227.20;;;;;;4992041;28;20053;-71
2021/01/31 07:24:54;;;;;;;35.40;19.33;;;77.20;2227.20;;;;;;4991889;28;20118;-68
2021/01/31 07:28:04;;;;;;;36.72;18.52;;;77.30;2227.20;;;;;;4978757;28;20030;-72
2021/01/31 07:30:39;;;;;;;28.25;14.43;;;77.20;2227.20;;;;;;4982567;28;20041;-71
2021/01/31 07:33:17;;;;;;;32.60;16.75;;;77.10;2227.20;;;;;;4990263;28;20579;-72
2021/01/31 07:35:58;;;;;;;29.70;14.73;;;77.10;2227.20;;;;;;4991699;28;20062;-69
2021/01/31 07:38:46;;;;;;;34.22;18.35;;;77.10;2227.20;;;;;;5021139;28;20038;-72
2021/01/31 07:41:14;;;;;;;40.72;21.13;;;77.10;2227.20;;;;;;5051157;28;20080;-73
2021/01/31 07:43:42;;;;;;;61.25;32.30;;;77.10;2227.20;;;;;;5023791;28;20042;-73
2021/01/31 07:46:12;;;;;;;35.00;19.42;;;77.10;2227.20;;;;;;5039556;28;20029;-68
2021/01/31 07:48:44;;;;;;;35.65;18.55;;;77.10;2227.20;;;;;;5046134;28;20609;-72
2021/01/31 07:51:12;;;;;;;38.13;21.30;;;77.10;2227.20;;;;;;5051452;28;20053;-73
2021/01/31 07:53:41;;;;;;;34.42;18.85;;;77.10;2227.20;;;;;;5050427;28;20104;-71
2021/01/31 07:56:24;;;;;;;34.53;18.27;;;77.10;2227.20;;;;;;5051447;28;20112;-73
2021/01/31 07:58:52;;;;;;;33.88;18.17;;;77.00;2227.20;;;;;;5050996;28;20162;-73
2021/01/31 08:01:40;;;;;;;28.00;16.30;;;77.00;2227.20;;;;;;5063095;28;20090;-74
2021/01/31 08:04:18;;;;;;;27.75;14.80;;;77.00;2227.20;;;;;;4991767;28;20050;-73
2021/01/31 08:06:46;;;;;;;32.28;17.17;;;77.00;2227.20;;;;;;4991641;28;20050;-72
2021/01/31 08:09:27;;;;;;;33.15;18.20;;;77.00;2227.20;;;;;;4979872;28;20039;-74
2021/01/31 08:12:04;;;;;;;33.03;17.92;;;77.00;2227.20;;;;;;4988941;28;20068;-73
2021/01/31 08:15:00;;;;;;;34.33;19.42;;;77.00;2227.20;;;;;;4990908;28;20526;-72
2021/01/31 08:17:55;;;;;;;42.10;23.50;;;76.90;2227.20;;;;;;4991030;28;20117;-73
2021/01/31 08:20:38;;;;;;;40.78;23.33;;;76.90;2227.20;;;;;;4984389;28;20464;-73
2021/01/31 08:23:24;;;;;;;44.53;25.90;;;77.00;2227.20;;;;;;4991611;28;20038;-72
2021/01/31 08:26:01;;;;;;;34.78;19.23;;;77.00;2227.20;;;;;;4914334;29;20430;-73
2021/01/31 08:28:33;;;;;;;36.42;21.73;;;76.90;2227.20;;;;;;4914239;29;20036;-73
2021/01/31 08:31:04;;;;;;;31.98;17.15;;;76.90;2227.20;;;;;;4914729;29;20434;-73
2021/01/31 08:33:44;;;;;;;27.67;16.10;;;76.90;2227.20;;;;;;4914656;29;20099;-73
2021/01/31 08:36:18;;;;;;;33.30;19.70;;;76.80;2227.20;;;;;;4913354;29;20024;-73
2021/01/31 08:38:49;;;;;;;33.17;17.98;;;76.90;2227.20;;;;;;4914893;29;20036;-70
2021/01/31 08:41:27;;;;;;;30.40;17.25;;;77.00;2227.20;;;;;;4955155;28;20385;-74
2021/01/31 08:44:18;;;;;;;28.42;16.50;;;76.90;2227.20;;;;;;4990543;28;20054;-70
2021/01/31 08:47:04;;;;;;;29.92;16.38;;;77.00;2227.20;;;;;;4990823;28;20018;-73
2021/01/31 08:49:30;;;;;;;36.05;18.50;;;77.00;2227.20;;;;;;4990265;28;20500;-71
2021/01/31 08:52:05;;;;;;;30.10;16.65;;;77.00;2227.20;;;;;;4990535;28;20034;-71
2021/01/31 08:54:31;;;;;;;35.60;19.17;;;77.00;2227.20;;;;;;4985146;28;20041;-74
2021/01/31 08:56:58;;;;;;;35.92;18.88;;;77.00;2227.20;;;;;;4982120;28;20026;-72
2021/01/31 08:59:28;;;;;;;63.65;32.17;;;77.00;2227.20;;;;;;4990016;28;20042;-72
2021/01/31 09:02:11;;;;;;;36.95;21.15;;;77.00;2227.20;;;;;;4985312;28;20033;-72
2021/01/31 09:04:38;;;;;;;44.70;25.20;;;76.90;2227.20;;;;;;5041554;28;20438;-72
2021/01/31 09:07:05;;;;;;;32.83;16.17;;;76.90;2227.20;;;;;;5038429;28;20105;-68
2021/01/31 09:09:37;;;;;;;37.03;21.02;;;76.90;2227.20;;;;;;5031820;28;20420;-71
2021/01/31 09:12:07;;;;;;;43.22;21.90;;;76.90;2227.20;;;;;;5035797;28;20034;-71
2021/01/31 09:14:39;;;;;;;37.10;20.92;;;76.90;2227.20;;;;;;5031880;28;20025;-71
2021/01/31 09:17:06;;;;;;;41.00;21.15;;;76.90;2227.20;;;;;;5037532;28;20103;-73
2021/01/31 09:19:32;;;;;;;34.75;19.27;;;76.90;2227.20;;;;;;5031486;28;20100;-74
2021/01/31 09:22:06;;;;;;;42.20;22.98;;;76.90;2227.20;;;;;;5031128;28;20033;-74
2021/01/31 09:24:36;;;;;;;42.70;24.13;;;76.90;2227.20;;;;;;5031553;28;20033;-70
2021/01/31 09:27:03;;;;;;;36.05;18.45;;;76.90;2227.20;;;;;;5031341;28;20053;-70
2021/01/31 09:29:31;;;;;;;57.88;26.40;;;76.90;2227.20;;;;;;5031841;28;20029;-75
2021/01/31 09:32:29;;;;;;;34.55;17.65;;;76.80;2227.20;;;;;;5032429;28;20032;-74
2021/01/31 09:34:56;;;;;;;57.42;32.22;;;76.80;2227.20;;;;;;5009441;28;20142;-75
2021/01/31 09:37:27;;;;;;;62.83;37.50;;;76.90;2227.20;;;;;;4993391;28;20096;-71
2021/01/31 09:39:58;;;;;;;79.55;41.20;;;76.90;2227.20;;;;;;4993177;28;20038;-74
2021/01/31 09:42:31;;;;;;;43.95;22.67;;;77.50;2227.20;;;;;;5009259;28;20030;-70
2021/01/31 09:45:25;;;;;;;41.33;22.75;;;76.80;2227.20;;;;;;5009015;28;20033;-69
2021/01/31 09:47:51;;;;;;;42.10;23.48;;;76.90;2227.20;;;;;;5006384;28;20030;-76
2021/01/31 09:50:17;;;;;;;40.92;21.33;;;77.00;2227.20;;;;;;5011078;28;20037;-78
2021/01/31 09:52:45;;;;;;;37.53;20.42;;;76.90;2227.20;;;;;;5009840;28;20041;-76
2021/01/31 09:55:28;;;;;;;45.17;24.88;;;76.90;2227.20;;;;;;5009045;28;20503;-78
2021/01/31 09:57:56;;;;;;;59.95;33.08;;;77.00;2227.20;;;;;;5008201;28;20026;-73
2021/01/31 10:00:27;;;;;;;42.30;24.15;;;77.00;2227.20;;;;;;5027071;28;20045;-75
2021/01/31 10:03:13;;;;;;;40.55;23.27;;;77.10;2227.20;;;;;;5029885;28;20053;-75
2021/01/31 10:05:38;;;;;;;42.72;24.30;;;77.10;2227.20;;;;;;5023668;28;20060;-76
2021/01/31 10:08:14;;;;;;;61.95;34.85;;;77.20;2227.20;;;;;;5011319;28;20055;-76
2021/01/31 10:10:41;;;;;;;47.10;26.83;;;77.20;2227.20;;;;;;5028190;28;20498;-76
2021/01/31 10:13:38;;;;;;;46.38;26.88;;;77.20;2227.20;;;;;;5060324;28;20028;-74
2021/01/31 10:16:16;;;;;;;39.35;23.58;;;77.20;2227.20;;;;;;5059077;28;20374;-74
2021/01/31 10:18:42;;;;;;;41.53;23.95;;;77.10;2227.20;;;;;;5066606;28;20028;-75
2021/01/31 10:21:29;;;;;;;36.90;20.13;;;77.20;2227.20;;;;;;5059665;28;20104;-75
2021/01/31 10:24:03;;;;;;;38.30;21.13;;;77.20;2227.20;;;;;;5058976;28;20132;-70
2021/01/31 10:26:29;;;;;;;42.03;23.48;;;77.20;2227.20;;;;;;5060348;28;20048;-74
2021/01/31 10:28:58;;;;;;;33.63;19.45;;;77.10;2227.20;;;;;;5051991;28;20055;-75
2021/01/31 10:31:41;;;;;;;34.08;19.73;;;77.10;2227.20;;;;;;5051631;28;20049;-75
2021/01/31 10:34:12;;;;;;;52.92;30.20;;;77.10;2227.20;;;;;;5051346;28;20017;-77
2021/01/31 10:36:40;;;;;;;42.97;23.95;;;77.10;2227.20;;;;;;5051539;28;20021;-77
2021/01/31 10:39:09;;;;;;;49.88;27.25;;;77.10;2227.20;;;;;;5051954;28;20555;-77
2021/01/31 10:41:35;;;;;;;62.75;32.42;;;77.20;2227.20;;;;;;5051213;28;20108;-76
2021/01/31 10:44:03;;;;;;;46.25;25.27;;;77.20;2227.20;;;;;;5050242;28;20132;-75
2021/01/31 10:46:30;;;;;;;46.92;25.00;;;77.10;2227.20;;;;;;5051149;28;20550;-76
2021/01/31 10:48:56;;;;;;;38.22;22.40;;;77.10;2227.20;;;;;;5051547;28;20086;-75
2021/01/31 10:51:22;;;;;;;43.35;24.33;;;77.20;2227.20;;;;;;5051668;28;20029;-75
2021/01/31 10:53:48;;;;;;;105.50;47.67;;;77.20;2227.20;;;;;;5060493;28;20564;-77
2021/01/31 10:56:14;;;;;;;61.63;32.25;;;77.30;2227.20;;;;;;5070964;28;20025;-76
2021/01/31 10:58:40;;;;;;;53.40;27.58;;;77.20;2227.20;;;;;;5074241;28;20044;-77
2021/01/31 11:01:06;;;;;;;52.72;29.10;;;77.20;2227.20;;;;;;5072916;28;20377;-75
2021/01/31 11:03:32;;;;;;;40.92;22.33;;;77.20;2227.20;;;;;;5094692;28;20043;-73
2021/01/31 11:05:57;;;;;;;41.72;22.35;;;77.10;2227.20;;;;;;5089307;28;20040;-74
2021/01/31 11:08:25;;;;;;;34.30;19.13;;;77.10;2227.20;;;;;;5086547;28;20078;-74
2021/01/31 11:10:51;;;;;;;36.42;19.67;;;77.10;2227.20;;;;;;5065133;28;20063;-73
2021/01/31 11:13:17;;;;;;;47.47;26.98;;;77.10;2227.20;;;;;;5089801;28;20469;-74
2021/01/31 11:15:43;;;;;;;59.72;35.42;;;77.10;2227.20;;;;;;5094431;28;20024;-71
2021/01/31 11:18:08;;;;;;;58.72;35.40;;;77.10;2227.20;;;;;;5094416;28;20475;-75
2021/01/31 11:20:34;;;;;;;48.88;28.13;;;77.20;2227.20;;;;;;5094321;28;20028;-74
2021/01/31 11:23:00;;;;;;;50.22;28.45;;;77.20;2227.20;;;;;;5092893;28;20081;-75
2021/01/31 11:25:25;;;;;;;46.78;27.90;;;77.20;2227.20;;;;;;5093180;28;20031;-74
2021/01/31 11:27:51;;;;;;;51.45;29.95;;;77.10;2227.20;;;;;;5092851;28;20038;-72
2021/01/31 11:30:17;;;;;;;43.28;23.40;;;77.10;2227.20;;;;;;5090642;28;20038;-74
2021/01/31 11:32:43;;;;;;;43.97;25.50;;;77.20;2227.20;;;;;;5092984;28;20043;-72
2021/01/31 11:35:09;;;;;;;43.40;24.80;;;77.10;2227.20;;;;;;5073767;28;20050;-74
2021/01/31 11:37:35;;;;;;;45.60;22.98;;;77.10;2227.20;;;;;;5092596;28;20473;-74
2021/01/31 11:40:00;;;;;;;59.95;30.67;;;77.10;2227.20;;;;;;5092456;28;20020;-74
2021/01/31 11:42:26;;;;;;;56.35;29.67;;;77.10;2227.20;;;;;;5092951;28;20051;-73
2021/01/31 11:44:52;;;;;;;53.83;27.77;;;77.10;2227.20;;;;;;5092405;28;20477;-71
2021/01/31 11:47:17;;;;;;;54.05;28.52;;;77.10;2227.20;;;;;;5074114;28;20396;-74
2021/01/31 11:49:43;;;;;;;46.70;25.80;;;77.10;2227.20;;;;;;5091850;28;20085;-74
2021/01/31 11:52:09;;;;;;;42.10;23.02;;;77.10;2227.20;;;;;;5084299;28;20115;-75
2021/01/31 11:54:34;;;;;;;49.15;24.13;;;77.00;2227.20;;;;;;5087579;28;20450;-75
2021/01/31 11:57:00;;;;;;;49.50;26.40;;;77.00;2227.20;;;;;;5091507;28;20032;-73
2021/01/31 11:59:26;;;;;;;38.33;21.02;;;77.00;2227.20;;;;;;5095032;28;20043;-75
2021/01/31 12:01:52;;;;;;;45.38;26.40;;;76.90;2227.20;;;;;;5095876;28;20481;-74
2021/01/31 12:04:18;;;;;;;49.17;27.92;;;76.90;2227.20;;;;;;5096169;28;20067;-57
2021/01/31 12:06:43;;;;;;;65.78;33.03;;;77.00;2227.20;;;;;;5095805;28;20093;-57
2021/01/31 12:09:09;;;;;;;70.45;31.92;;;77.00;2227.20;;;;;;5095781;28;20075;-58
2021/01/31 12:11:35;;;;;;;64.72;32.67;;;77.00;2227.20;;;;;;5094756;28;20035;-57
2021/01/31 12:14:01;;;;;;;84.25;40.85;;;77.00;2227.20;;;;;;5096952;28;20465;-58
2021/01/31 12:16:27;;;;;;;80.68;38.00;;;77.00;2227.20;;;;;;5096557;28;20031;-58
2021/01/31 12:18:53;;;;;;;79.80;38.83;;;76.90;2227.20;;;;;;5095860;28;20457;-57
2021/01/31 12:21:18;;;;;;;74.18;34.65;;;76.90;2227.20;;;;;;5077078;28;20385;-57
2021/01/31 12:23:44;;;;;;;107.40;46.58;;;76.90;2227.20;;;;;;5095708;28;20036;-57
2021/01/31 12:26:10;;;;;;;102.25;46.80;;;76.80;2227.20;;;;;;5095048;28;20048;-56
2021/01/31 12:28:36;;;;;;;72.32;34.60;;;76.80;2227.20;;;;;;5095501;28;20061;-57